createdAt,value
2023-04-07T00:01:40.576Z,86.60
2023-04-07T00:04:07.715Z,86.50
2023-04-07T00:06:34.817Z,86.40
2023-04-07T00:09:01.937Z,86.40
2023-04-07T00:11:28.720Z,86.30
2023-04-07T00:13:55.789Z,86.10
2023-04-07T00:16:23.098Z,86.10
2023-04-07T00:18:49.957Z,86.10
2023-04-07T00:21:16.937Z,86.20
2023-04-07T00:23:43.787Z,86.30
2023-04-07T00:26:10.767Z,86.20
2023-04-07T00:28:39.011Z,86.20
2023-04-07T00:31:05.946Z,86.30
2023-04-07T00:33:32.848Z,86.40
2023-04-07T00:35:59.631Z,86.10
2023-04-07T00:38:26.650Z,86.40
2023-04-07T00:41:00.033Z,86.60
2023-04-07T00:43:27.457Z,86.60
2023-04-07T00:45:54.825Z,86.60
2023-04-07T00:48:22.256Z,86.50
2023-04-07T00:50:49.177Z,86.10
2023-04-07T00:53:16.893Z,86.10
2023-04-07T00:55:44.126Z,86.10
2023-04-07T00:58:11.908Z,86.10
2023-04-07T01:00:49.441Z,86.20
2023-04-07T01:03:26.206Z,86.20
2023-04-07T01:05:55.741Z,86.20
2023-04-07T01:08:33.279Z,86.10
2023-04-07T01:11:06.928Z,86.10
2023-04-07T01:13:36.812Z,85.80
2023-04-07T01:16:19.950Z,85.70
2023-04-07T01:18:54.574Z,85.80
2023-04-07T01:21:25.280Z,85.80
2023-04-07T01:24:12.522Z,85.90
2023-04-07T01:26:40.469Z,85.90
2023-04-07T01:29:37.806Z,85.90
2023-04-07T01:32:08.148Z,85.70
2023-04-07T01:34:36.936Z,85.70
2023-04-07T01:37:04.908Z,85.80
2023-04-07T01:39:32.649Z,85.70
2023-04-07T01:42:02.390Z,85.70
2023-04-07T01:44:30.221Z,85.80
2023-04-07T01:46:57.761Z,85.80
2023-04-07T01:49:30.284Z,85.90
2023-04-07T01:51:58.378Z,85.80
2023-04-07T01:54:27.288Z,85.80
2023-04-07T01:56:54.138Z,85.90
2023-04-07T01:59:21.718Z,85.80
2023-04-07T02:01:48.804Z,86.10
2023-04-07T02:04:25.072Z,86.00
2023-04-07T02:07:04.024Z,86.00
2023-04-07T02:09:40.938Z,86.10
2023-04-07T02:12:11.790Z,86.10
2023-04-07T02:14:43.808Z,86.00
2023-04-07T02:17:15.830Z,86.00
2023-04-07T02:19:46.082Z,86.00
2023-04-07T02:22:14.081Z,86.00
2023-04-07T02:24:43.999Z,85.80
2023-04-07T02:27:10.798Z,85.80
2023-04-07T02:29:37.675Z,85.70
2023-04-07T02:32:06.110Z,85.90
2023-04-07T02:34:32.852Z,85.80
2023-04-07T02:36:59.859Z,85.60
2023-04-07T02:39:27.524Z,85.70
2023-04-07T02:41:54.306Z,85.70
2023-04-07T02:44:22.203Z,85.80
2023-04-07T02:46:49.007Z,85.80
2023-04-07T02:49:16.729Z,85.80
2023-04-07T02:51:43.616Z,86.00
2023-04-07T02:54:10.483Z,86.00
2023-04-07T02:56:37.380Z,86.00
2023-04-07T02:59:04.254Z,85.90
2023-04-07T03:01:36.426Z,85.90
2023-04-07T03:04:03.652Z,85.80
2023-04-07T03:06:31.534Z,85.80
2023-04-07T03:09:07.089Z,86.00
2023-04-07T03:11:33.974Z,86.00
2023-04-07T03:14:01.023Z,85.90
2023-04-07T03:16:30.228Z,86.00
2023-04-07T03:19:12.333Z,86.00
2023-04-07T03:21:44.752Z,86.10
2023-04-07T03:24:11.877Z,86.20
2023-04-07T03:26:38.998Z,85.90
2023-04-07T03:29:13.082Z,85.90
2023-04-07T03:31:41.938Z,86.30
2023-04-07T03:34:08.957Z,86.30
2023-04-07T03:36:35.809Z,86.20
2023-04-07T03:39:05.073Z,86.30
2023-04-07T03:41:31.999Z,86.40
2023-04-07T03:43:58.836Z,86.50
2023-04-07T03:46:27.136Z,86.50
2023-04-07T03:48:54.437Z,86.50
2023-04-07T03:51:22.492Z,86.70
2023-04-07T03:53:54.266Z,86.70
2023-04-07T03:56:32.633Z,86.70
2023-04-07T03:58:59.515Z,86.60
2023-04-07T04:01:30.436Z,86.60
2023-04-07T04:04:03.399Z,86.60
2023-04-07T04:06:31.388Z,86.70
2023-04-07T04:09:06.577Z,86.70
2023-04-07T04:11:37.414Z,86.60
2023-04-07T04:14:06.560Z,86.50
2023-04-07T04:16:35.791Z,86.50
2023-04-07T04:19:08.218Z,86.50
2023-04-07T04:21:35.406Z,86.50
2023-04-07T04:24:02.680Z,86.60
2023-04-07T04:26:30.283Z,86.50
2023-04-07T04:29:03.434Z,86.50
2023-04-07T04:31:31.005Z,86.40
2023-04-07T04:33:58.757Z,86.30
2023-04-07T04:36:26.345Z,86.30
2023-04-07T04:38:57.996Z,86.30
2023-04-07T04:41:24.851Z,86.00
2023-04-07T04:43:52.143Z,85.80
2023-04-07T04:46:23.107Z,85.70
2023-04-07T04:48:52.643Z,85.60
2023-04-07T04:51:20.845Z,85.30
2023-04-07T04:53:53.246Z,85.30
2023-04-07T04:56:22.556Z,84.90
2023-04-07T04:58:50.489Z,85.10
2023-04-07T05:01:30.162Z,85.00
2023-04-07T05:04:04.748Z,85.10
2023-04-07T05:06:31.762Z,84.90
2023-04-07T05:09:04.075Z,85.00
2023-04-07T05:11:41.267Z,85.10
2023-04-07T05:14:08.267Z,85.10
2023-04-07T05:16:36.761Z,84.80
2023-04-07T05:19:04.979Z,84.80
2023-04-07T05:21:31.804Z,85.00
2023-04-07T05:24:02.609Z,85.20
2023-04-07T05:26:31.328Z,85.00
2023-04-07T05:28:58.913Z,85.10
2023-04-07T05:31:26.154Z,85.10
2023-04-07T05:33:56.382Z,85.20
2023-04-07T05:36:27.665Z,85.30
2023-04-07T05:38:56.763Z,85.30
2023-04-07T05:41:24.036Z,85.30
2023-04-07T05:43:51.173Z,85.30
2023-04-07T05:46:18.412Z,85.30
2023-04-07T05:48:52.954Z,85.40
2023-04-07T05:51:20.737Z,85.40
2023-04-07T05:53:47.606Z,85.40
2023-04-07T05:56:15.453Z,85.20
2023-04-07T05:58:47.238Z,85.30
2023-04-07T06:01:15.858Z,85.10
2023-04-07T06:03:43.090Z,85.10
2023-04-07T06:06:19.936Z,85.20
2023-04-07T06:08:47.333Z,85.10
2023-04-07T06:11:14.466Z,85.00
2023-04-07T06:13:41.392Z,85.00
2023-04-07T06:16:09.008Z,85.00
2023-04-07T06:18:37.584Z,84.20
2023-04-07T06:21:06.634Z,84.80
2023-04-07T06:23:33.550Z,84.50
2023-04-07T06:26:00.343Z,84.90
2023-04-07T06:28:29.414Z,85.00
2023-04-07T06:30:57.623Z,84.90
2023-04-07T06:33:25.751Z,84.80
2023-04-07T06:35:52.794Z,85.10
2023-04-07T06:38:19.680Z,84.90
2023-04-07T06:40:46.473Z,84.70
2023-04-07T06:43:13.290Z,84.40
2023-04-07T06:45:44.411Z,84.10
2023-04-07T06:48:11.416Z,84.40
2023-04-07T06:50:41.272Z,84.50
2023-04-07T06:53:08.146Z,84.70
2023-04-07T06:55:34.982Z,85.00
2023-04-07T06:58:01.894Z,84.90
2023-04-07T07:00:30.822Z,84.50
2023-04-07T07:02:58.047Z,84.40
2023-04-07T07:05:25.563Z,84.30
2023-04-07T07:07:52.428Z,84.30
2023-04-07T07:10:20.717Z,84.30
2023-04-07T07:12:47.572Z,84.60
2023-04-07T07:15:14.526Z,84.60
2023-04-07T07:17:41.701Z,84.80
2023-04-07T07:20:09.233Z,84.40
2023-04-07T07:22:36.498Z,84.60
2023-04-07T07:25:03.683Z,84.80
2023-04-07T07:27:30.700Z,84.80
2023-04-07T07:29:57.576Z,84.70
2023-04-07T07:32:24.824Z,84.40
2023-04-07T07:34:51.714Z,84.70
2023-04-07T07:37:18.514Z,84.10
2023-04-07T07:39:45.453Z,84.20
2023-04-07T07:42:12.335Z,83.80
2023-04-07T07:44:39.276Z,83.50
2023-04-07T07:47:06.295Z,83.60
2023-04-07T07:49:33.164Z,83.20
2023-04-07T07:52:00.192Z,83.20
2023-04-07T07:54:26.933Z,83.20
2023-04-07T07:56:53.712Z,83.70
2023-04-07T07:59:21.571Z,83.40
2023-04-07T08:01:48.778Z,83.50
2023-04-07T08:04:15.886Z,83.20
2023-04-07T08:06:42.846Z,83.50
2023-04-07T08:09:09.775Z,83.40
2023-04-07T08:11:36.586Z,83.10
2023-04-07T08:14:03.432Z,82.90
2023-04-07T08:16:30.655Z,83.00
2023-04-07T08:18:57.590Z,83.40
2023-04-07T08:21:24.525Z,83.10
2023-04-07T08:23:51.420Z,83.00
2023-04-07T08:26:18.244Z,83.00
2023-04-07T08:28:45.227Z,82.40
2023-04-07T08:31:12.065Z,81.60
2023-04-07T08:33:38.883Z,81.60
2023-04-07T08:36:06.531Z,81.40
2023-04-07T08:38:33.428Z,81.00
2023-04-07T08:41:07.889Z,81.00
2023-04-07T08:43:39.062Z,81.10
2023-04-07T08:46:06.268Z,81.10
2023-04-07T08:48:34.743Z,81.20
2023-04-07T08:51:10.052Z,80.50
2023-04-07T08:54:05.938Z,80.40
2023-04-07T08:56:34.304Z,80.60
2023-04-07T08:59:06.790Z,81.20
2023-04-07T09:01:36.627Z,81.40
2023-04-07T09:04:04.948Z,81.50
2023-04-07T09:06:32.199Z,81.80
2023-04-07T09:09:00.507Z,81.20
2023-04-07T09:11:28.448Z,80.00
2023-04-07T09:13:56.558Z,79.80
2023-04-07T09:16:26.675Z,79.40
2023-04-07T09:18:53.610Z,79.70
2023-04-07T09:21:20.940Z,80.30
2023-04-07T09:23:48.164Z,79.50
2023-04-07T09:26:26.359Z,79.70
2023-04-07T09:28:55.784Z,80.00
2023-04-07T09:31:26.256Z,80.30
2023-04-07T09:33:53.469Z,80.40
2023-04-07T09:36:20.511Z,80.20
2023-04-07T09:38:48.353Z,80.80
2023-04-07T09:41:16.863Z,81.70
2023-04-07T09:43:46.196Z,81.40
2023-04-07T09:46:15.447Z,81.00
2023-04-07T09:48:44.936Z,79.50
2023-04-07T09:51:17.292Z,79.90
2023-04-07T09:53:48.503Z,80.90
2023-04-07T09:56:18.047Z,80.60
2023-04-07T09:58:47.067Z,81.20
2023-04-07T10:01:17.020Z,80.70
2023-04-07T10:03:46.757Z,80.90
2023-04-07T10:06:14.036Z,81.20
2023-04-07T10:08:42.876Z,81.00
2023-04-07T10:11:10.658Z,81.30
2023-04-07T10:13:40.660Z,81.60
2023-04-07T10:16:08.454Z,81.10
2023-04-07T10:18:36.956Z,81.40
2023-04-07T10:21:09.247Z,79.80
2023-04-07T10:23:51.871Z,80.00
2023-04-07T10:26:23.798Z,79.20
2023-04-07T10:28:55.574Z,79.30
2023-04-07T10:31:23.579Z,79.40
2023-04-07T10:33:54.122Z,80.40
2023-04-07T10:36:22.372Z,80.50
2023-04-07T10:39:08.807Z,80.00
2023-04-07T10:41:43.585Z,80.00
2023-04-07T10:44:31.249Z,80.00
2023-04-07T10:47:01.014Z,79.30
2023-04-07T10:49:27.759Z,78.50
2023-04-07T10:52:24.073Z,79.70
2023-04-07T10:55:29.905Z,80.10
2023-04-07T10:58:31.637Z,80.20
2023-04-07T11:01:04.864Z,80.40
2023-04-07T11:03:34.893Z,80.30
2023-04-07T11:06:10.560Z,79.70
2023-04-07T11:08:40.042Z,78.60
2023-04-07T11:11:11.515Z,78.90
2023-04-07T11:13:47.911Z,79.50
2023-04-07T11:16:19.752Z,79.90
2023-04-07T11:18:50.850Z,79.80
2023-04-07T11:21:20.589Z,79.70
2023-04-07T11:23:48.666Z,79.70
2023-04-07T11:26:16.312Z,79.30
2023-04-07T11:28:47.375Z,78.40
2023-04-07T11:31:23.492Z,79.20
2023-04-07T11:34:02.311Z,79.40
2023-04-07T11:36:32.301Z,79.30
2023-04-07T11:39:00.653Z,78.30
2023-04-07T11:41:30.508Z,78.90
2023-04-07T11:44:08.010Z,79.40
2023-04-07T11:46:35.410Z,80.20
2023-04-07T11:49:10.877Z,80.10
2023-04-07T11:51:37.926Z,80.00
2023-04-07T11:54:04.893Z,79.30
2023-04-07T11:56:45.713Z,79.50
2023-04-07T11:59:25.890Z,78.00
2023-04-07T12:01:56.026Z,77.70
2023-04-07T12:04:23.632Z,77.00
2023-04-07T12:06:50.893Z,77.80
2023-04-07T12:09:36.092Z,77.70
2023-04-07T12:12:06.390Z,78.50
2023-04-07T12:14:33.617Z,79.00
2023-04-07T12:17:03.337Z,78.90
2023-04-07T12:19:33.594Z,79.20
2023-04-07T12:22:00.686Z,79.80
2023-04-07T12:24:28.641Z,79.30
2023-04-07T12:26:56.164Z,78.70
2023-04-07T12:29:23.007Z,78.60
2023-04-07T12:31:51.282Z,78.50
2023-04-07T12:34:18.927Z,79.50
2023-04-07T12:36:45.690Z,79.50
2023-04-07T12:39:12.640Z,79.30
2023-04-07T12:41:39.758Z,78.80
2023-04-07T12:44:06.850Z,79.30
2023-04-07T12:46:33.959Z,79.80
2023-04-07T12:49:01.242Z,79.60
2023-04-07T12:51:28.470Z,78.50
2023-04-07T12:53:55.309Z,78.50
2023-04-07T12:56:22.433Z,78.80
2023-04-07T12:58:49.430Z,78.50
2023-04-07T13:01:16.738Z,79.00
2023-04-07T13:03:44.061Z,78.50
2023-04-07T13:06:11.913Z,78.80
2023-04-07T13:08:39.875Z,78.40
2023-04-07T13:11:07.104Z,78.80
2023-04-07T13:13:34.273Z,79.00
2023-04-07T13:16:01.247Z,78.50
2023-04-07T13:18:28.186Z,78.90
2023-04-07T13:21:26.556Z,78.70
2023-04-07T13:23:43.574Z,79.20
2023-04-07T13:26:11.528Z,79.00
2023-04-07T13:28:38.987Z,79.50
2023-04-07T13:31:06.338Z,79.80
2023-04-07T13:33:33.155Z,79.60
2023-04-07T13:35:59.982Z,79.40
2023-04-07T13:38:26.740Z,79.30
2023-04-07T13:40:53.811Z,79.40
2023-04-07T13:43:20.788Z,79.40
2023-04-07T13:45:48.616Z,78.90
2023-04-07T13:48:15.824Z,79.40
2023-04-07T13:50:42.690Z,79.40
2023-04-07T13:53:09.630Z,79.00
2023-04-07T13:55:36.748Z,79.30
2023-04-07T13:58:03.529Z,79.40
2023-04-07T14:00:30.593Z,80.00
2023-04-07T14:02:57.507Z,79.90
2023-04-07T14:05:24.934Z,78.90
2023-04-07T14:07:52.142Z,78.60
2023-04-07T14:10:19.020Z,78.40
2023-04-07T14:12:46.218Z,78.80
2023-04-07T14:15:13.055Z,78.60
2023-04-07T14:17:39.868Z,77.70
2023-04-07T14:20:07.668Z,77.40
2023-04-07T14:22:34.499Z,77.90
2023-04-07T14:25:01.495Z,77.90
2023-04-07T14:27:31.292Z,78.90
2023-04-07T14:29:59.477Z,79.00
2023-04-07T14:32:29.381Z,78.30
2023-04-07T14:34:56.654Z,78.20
2023-04-07T14:37:26.410Z,78.70
2023-04-07T14:40:02.372Z,78.00
2023-04-07T14:42:30.792Z,78.10
2023-04-07T14:45:00.318Z,77.60
2023-04-07T14:47:27.787Z,77.80
2023-04-07T14:49:55.464Z,78.00
2023-04-07T14:52:22.454Z,78.50
2023-04-07T14:54:49.379Z,78.30
2023-04-07T14:57:17.111Z,78.60
2023-04-07T14:59:44.259Z,78.80
2023-04-07T15:02:11.420Z,78.60
2023-04-07T15:04:38.792Z,78.70
2023-04-07T15:07:05.901Z,79.20
2023-04-07T15:09:32.871Z,79.60
2023-04-07T15:12:00.730Z,79.80
2023-04-07T15:14:27.530Z,79.90
2023-04-07T15:16:54.381Z,80.10
2023-04-07T15:19:21.231Z,80.30
2023-04-07T15:21:48.087Z,80.20
2023-04-07T15:24:16.402Z,80.40
2023-04-07T15:26:43.626Z,80.70
2023-04-07T15:29:10.660Z,80.40
2023-04-07T15:31:37.553Z,79.60
2023-04-07T15:34:04.545Z,78.50
2023-04-07T15:36:31.499Z,78.70
2023-04-07T15:39:07.041Z,78.20
2023-04-07T15:41:34.382Z,78.00
2023-04-07T15:44:01.915Z,78.40
2023-04-07T15:46:28.913Z,78.20
2023-04-07T15:48:55.924Z,78.70
2023-04-07T15:51:22.971Z,78.60
2023-04-07T15:53:50.232Z,78.50
2023-04-07T15:56:17.226Z,78.40
2023-04-07T15:58:45.350Z,78.70
2023-04-07T16:01:12.507Z,78.90
2023-04-07T16:03:39.526Z,78.60
2023-04-07T16:06:06.373Z,78.80
2023-04-07T16:08:33.232Z,78.90
2023-04-07T16:11:00.670Z,78.50
2023-04-07T16:13:27.562Z,79.20
2023-04-07T16:15:57.527Z,79.40
2023-04-07T16:18:24.584Z,79.30
2023-04-07T16:20:51.542Z,79.30
2023-04-07T16:23:18.489Z,79.20
2023-04-07T16:25:45.631Z,79.40
2023-04-07T16:28:12.450Z,79.60
2023-04-07T16:30:40.060Z,79.90
2023-04-07T16:33:06.955Z,80.00
2023-04-07T16:35:34.106Z,80.20
2023-04-07T16:38:04.432Z,80.30
2023-04-07T16:40:32.234Z,80.50
2023-04-07T16:42:59.352Z,80.70
2023-04-07T16:45:26.252Z,80.50
2023-04-07T16:47:53.075Z,80.70
2023-04-07T16:50:22.761Z,80.90
2023-04-07T16:52:49.598Z,80.90
2023-04-07T16:55:16.487Z,81.10
2023-04-07T16:57:43.410Z,81.40
2023-04-07T17:00:10.833Z,81.50
2023-04-07T17:02:37.857Z,81.80
2023-04-07T17:05:05.076Z,81.60
2023-04-07T17:07:31.872Z,81.20
2023-04-07T17:09:58.801Z,81.10
2023-04-07T17:12:26.405Z,81.60
2023-04-07T17:14:53.252Z,81.70
2023-04-07T17:17:21.163Z,81.80
2023-04-07T17:19:48.063Z,81.70
2023-04-07T17:22:14.888Z,81.70
2023-04-07T17:24:41.707Z,81.80
2023-04-07T17:27:08.529Z,81.80
2023-04-07T17:29:35.431Z,82.00
2023-04-07T17:32:02.667Z,81.60
2023-04-07T17:34:29.660Z,81.50
2023-04-07T17:36:56.502Z,81.60
2023-04-07T17:39:23.432Z,81.70
2023-04-07T17:41:50.729Z,81.80
2023-04-07T17:44:18.021Z,81.80
2023-04-07T17:46:45.592Z,81.90
2023-04-07T17:49:12.592Z,81.90
2023-04-07T17:51:39.445Z,81.90
2023-04-07T17:54:06.979Z,81.80
2023-04-07T17:56:33.750Z,81.90
2023-04-07T17:59:01.285Z,82.10
2023-04-07T18:01:28.155Z,82.00
2023-04-07T18:03:55.226Z,82.10
2023-04-07T18:06:22.607Z,82.10
2023-04-07T18:08:49.495Z,82.30
2023-04-07T18:11:17.425Z,82.20
2023-04-07T18:13:44.835Z,82.00
2023-04-07T18:16:17.305Z,81.60
2023-04-07T18:18:46.563Z,81.90
2023-04-07T18:21:13.397Z,82.30
2023-04-07T18:23:40.135Z,82.40
2023-04-07T18:26:07.003Z,82.50
2023-04-07T18:28:34.581Z,82.60
2023-04-07T18:31:07.639Z,82.80
2023-04-07T18:33:36.148Z,83.00
2023-04-07T18:36:07.014Z,82.90
2023-04-07T18:38:38.194Z,83.00
2023-04-07T18:41:07.321Z,82.90
2023-04-07T18:43:34.271Z,83.10
2023-04-07T18:46:01.421Z,83.10
2023-04-07T18:48:28.556Z,83.20
2023-04-07T18:50:56.445Z,83.30
2023-04-07T18:53:25.310Z,83.30
2023-04-07T18:55:52.539Z,83.70
2023-04-07T18:58:20.091Z,83.90
2023-04-07T19:00:49.852Z,84.00
2023-04-07T19:03:17.140Z,84.20
2023-04-07T19:05:47.229Z,84.40
2023-04-07T19:08:15.791Z,84.30
2023-04-07T19:10:42.652Z,84.00
2023-04-07T19:13:09.549Z,84.20
2023-04-07T19:15:38.409Z,84.00
2023-04-07T19:18:05.755Z,84.20
2023-04-07T19:20:33.831Z,84.10
2023-04-07T19:23:01.742Z,83.90
2023-04-07T19:25:28.893Z,84.00
2023-04-07T19:27:55.718Z,84.10
2023-04-07T19:30:22.811Z,84.10
2023-04-07T19:32:49.864Z,84.00
2023-04-07T19:35:17.266Z,83.80
2023-04-07T19:37:45.613Z,83.80
2023-04-07T19:40:13.575Z,83.80
2023-04-07T19:42:41.741Z,83.90
2023-04-07T19:45:09.399Z,84.00
2023-04-07T19:47:37.316Z,83.90
2023-04-07T19:50:05.399Z,83.80
2023-04-07T19:52:32.662Z,84.00
2023-04-07T19:55:01.056Z,84.10
2023-04-07T19:57:28.856Z,84.10
2023-04-07T19:59:55.706Z,84.00
2023-04-07T20:02:22.849Z,84.00
2023-04-07T20:04:49.899Z,84.00
2023-04-07T20:07:16.723Z,84.20
2023-04-07T20:09:43.796Z,84.20
2023-04-07T20:12:10.942Z,84.40
2023-04-07T20:14:37.842Z,84.50
2023-04-07T20:17:04.787Z,84.80
2023-04-07T20:19:31.604Z,84.90
2023-04-07T20:21:58.508Z,84.70
2023-04-07T20:24:25.756Z,84.70
2023-04-07T20:26:52.707Z,84.60
2023-04-07T20:29:21.097Z,84.50
2023-04-07T20:31:49.310Z,84.50
2023-04-07T20:34:16.662Z,84.50
2023-04-07T20:36:43.740Z,84.50
2023-04-07T20:39:10.685Z,84.50
2023-04-07T20:41:37.913Z,84.30
2023-04-07T20:44:05.553Z,84.30
2023-04-07T20:46:33.475Z,84.40
2023-04-07T20:49:00.551Z,84.50
2023-04-07T20:51:30.092Z,84.40
2023-04-07T20:53:57.153Z,84.40
2023-04-07T20:56:24.150Z,84.40
2023-04-07T20:58:51.296Z,84.40
2023-04-07T21:01:18.329Z,84.40
2023-04-07T21:03:45.419Z,84.30
2023-04-07T21:06:12.526Z,84.30
2023-04-07T21:08:39.522Z,84.50
2023-04-07T21:11:06.375Z,84.70
2023-04-07T21:13:33.284Z,84.60
2023-04-07T21:16:01.409Z,84.60
2023-04-07T21:18:28.410Z,84.30
2023-04-07T21:20:59.642Z,84.60
2023-04-07T21:23:26.564Z,84.70
2023-04-07T21:25:53.418Z,84.60
2023-04-07T21:28:20.338Z,84.70
2023-04-07T21:30:47.163Z,84.80
2023-04-07T21:33:14.279Z,84.70
2023-04-07T21:35:41.349Z,84.70
2023-04-07T21:38:08.207Z,84.80
2023-04-07T21:40:35.003Z,84.70
2023-04-07T21:43:01.869Z,84.80
2023-04-07T21:45:29.593Z,84.70
2023-04-07T21:47:56.739Z,84.60
2023-04-07T21:50:24.351Z,84.60
2023-04-07T21:52:51.970Z,84.40
2023-04-07T21:55:21.325Z,84.60
2023-04-07T21:57:48.602Z,84.50
2023-04-07T22:00:16.487Z,84.60
2023-04-07T22:02:45.325Z,84.70
2023-04-07T22:05:12.462Z,84.70
2023-04-07T22:07:39.441Z,84.80
2023-04-07T22:10:07.147Z,84.80
2023-04-07T22:12:34.124Z,84.80
2023-04-07T22:15:01.022Z,84.80
2023-04-07T22:17:28.040Z,84.70
2023-04-07T22:19:54.995Z,84.70
2023-04-07T22:22:21.944Z,84.70
2023-04-07T22:24:48.847Z,84.90
2023-04-07T22:27:15.702Z,85.00
2023-04-07T22:29:42.624Z,85.10
2023-04-07T22:32:09.451Z,85.30
2023-04-07T22:34:36.340Z,85.40
2023-04-07T22:37:03.345Z,85.40
2023-04-07T22:39:30.169Z,85.40
2023-04-07T22:41:57.071Z,85.40
2023-04-07T22:44:23.898Z,85.20
2023-04-07T22:46:50.697Z,85.40
2023-04-07T22:49:17.523Z,85.50
2023-04-07T22:51:48.407Z,85.60
2023-04-07T22:54:16.351Z,85.60
2023-04-07T22:56:44.089Z,85.50
2023-04-07T22:59:11.220Z,85.50
2023-04-07T23:01:38.316Z,85.50
2023-04-07T23:04:05.355Z,85.50
2023-04-07T23:06:33.323Z,85.40
2023-04-07T23:09:00.490Z,85.50
2023-04-07T23:11:27.327Z,85.40
2023-04-07T23:13:54.358Z,85.30
2023-04-07T23:16:21.277Z,85.30
2023-04-07T23:18:48.215Z,85.40
2023-04-07T23:21:15.462Z,85.50
2023-04-07T23:23:42.464Z,85.60
2023-04-07T23:26:09.363Z,85.60
2023-04-07T23:28:36.631Z,85.60
2023-04-07T23:31:03.747Z,85.60
2023-04-07T23:33:33.517Z,85.50
2023-04-07T23:36:00.613Z,85.50
2023-04-07T23:38:27.516Z,85.50
2023-04-07T23:40:54.320Z,85.40
2023-04-07T23:43:21.788Z,85.30
2023-04-07T23:45:48.534Z,85.30
2023-04-07T23:48:15.758Z,85.30
2023-04-07T23:50:42.608Z,85.50
2023-04-07T23:53:09.597Z,85.60
2023-04-07T23:55:36.388Z,85.70
2023-04-07T23:58:03.205Z,85.70
